createdAt,value
2019-05-05T00:00:39.893Z,34.70
2019-05-05T00:03:26.186Z,28.17
2019-05-05T00:05:56.250Z,27.98
2019-05-05T00:08:24.801Z,31.68
2019-05-05T00:11:12.596Z,34.18
2019-05-05T00:13:45.116Z,36.20
2019-05-05T00:16:31.024Z,33.58
2019-05-05T00:18:59.773Z,36.15
2019-05-05T00:21:27.945Z,44.13
2019-05-05T00:23:56.145Z,39.20
2019-05-05T00:26:24.880Z,39.38
2019-05-05T00:28:55.397Z,35.80
2019-05-05T00:31:24.304Z,36.00
2019-05-05T00:33:54.429Z,35.90
2019-05-05T00:36:24.574Z,38.48
2019-05-05T00:38:55.204Z,34.67
2019-05-05T00:41:25.352Z,35.38
2019-05-05T00:43:55.341Z,38.50
2019-05-05T00:46:25.200Z,26.48
2019-05-05T00:48:55.068Z,26.35
2019-05-05T00:51:24.423Z,27.22
2019-05-05T00:53:55.315Z,24.72
2019-05-05T00:56:25.014Z,30.48
2019-05-05T00:58:55.325Z,34.38
2019-05-05T01:01:31.054Z,36.95
2019-05-05T01:04:00.301Z,27.17
2019-05-05T01:06:30.120Z,35.45
2019-05-05T01:08:58.301Z,35.20
2019-05-05T01:11:26.540Z,28.98
2019-05-05T01:13:54.864Z,29.63
2019-05-05T01:16:24.695Z,25.90
2019-05-05T01:18:55.189Z,28.25
2019-05-05T01:21:24.442Z,29.77
2019-05-05T01:23:54.853Z,29.05
2019-05-05T01:26:24.878Z,29.25
2019-05-05T01:28:53.198Z,31.75
2019-05-05T01:31:22.198Z,29.02
2019-05-05T01:33:54.105Z,37.40
2019-05-05T01:36:23.701Z,32.05
2019-05-05T01:38:59.710Z,32.00
2019-05-05T01:41:35.510Z,28.73
2019-05-05T01:44:05.103Z,21.45
2019-05-05T01:46:35.317Z,23.87
2019-05-05T01:49:05.322Z,25.52
2019-05-05T01:51:35.430Z,29.87
2019-05-05T01:54:05.159Z,29.10
2019-05-05T01:56:35.180Z,24.65
2019-05-05T01:59:05.191Z,31.80
2019-05-05T02:01:35.216Z,31.60
2019-05-05T02:04:05.431Z,30.05
2019-05-05T02:06:34.970Z,31.55
2019-05-05T02:09:05.271Z,30.10
2019-05-05T02:11:35.316Z,27.00
2019-05-05T02:14:05.107Z,28.15
2019-05-05T02:16:34.737Z,34.08
2019-05-05T02:19:04.973Z,31.27
2019-05-05T02:21:35.105Z,31.95
2019-05-05T02:24:05.223Z,33.45
2019-05-05T02:26:35.015Z,36.45
2019-05-05T02:29:17.377Z,38.63
2019-05-05T02:32:06.340Z,37.78
2019-05-05T02:34:35.988Z,36.00
2019-05-05T02:37:05.446Z,39.25
2019-05-05T02:39:35.355Z,42.67
2019-05-05T02:42:05.694Z,43.90
2019-05-05T02:44:34.793Z,53.33
2019-05-05T02:47:08.043Z,45.67
2019-05-05T02:49:36.205Z,43.13
2019-05-05T02:52:05.139Z,44.10
2019-05-05T02:54:34.052Z,48.78
2019-05-05T02:57:04.515Z,50.15
2019-05-05T02:59:35.293Z,52.45
2019-05-05T03:02:08.225Z,62.45
2019-05-05T03:04:36.389Z,48.65
2019-05-05T03:07:04.821Z,55.90
2019-05-05T03:09:34.670Z,49.45
2019-05-05T03:12:04.777Z,53.75
2019-05-05T03:14:34.112Z,58.02
2019-05-05T03:17:04.307Z,58.95
2019-05-05T03:19:33.938Z,57.83
2019-05-05T03:22:03.638Z,60.40
2019-05-05T03:24:34.087Z,58.95
2019-05-05T03:27:03.848Z,57.58
2019-05-05T03:29:33.585Z,69.70
2019-05-05T03:32:05.258Z,61.30
2019-05-05T03:34:34.366Z,57.58
2019-05-05T03:37:04.233Z,64.25
2019-05-05T03:39:34.033Z,49.83
2019-05-05T03:42:04.398Z,60.60
2019-05-05T03:44:40.225Z,62.35
2019-05-05T03:47:08.405Z,64.97
2019-05-05T03:49:36.585Z,63.48
2019-05-05T03:52:05.094Z,49.75
2019-05-05T03:54:34.274Z,62.03
2019-05-05T03:57:08.553Z,53.85
2019-05-05T03:59:39.892Z,71.20
2019-05-05T04:02:09.785Z,52.85
2019-05-05T04:04:39.596Z,72.27
2019-05-05T04:07:08.051Z,61.90
2019-05-05T04:09:36.632Z,66.15
2019-05-05T04:12:05.050Z,61.30
2019-05-05T04:14:34.803Z,83.60
2019-05-05T04:17:05.666Z,90.17
2019-05-05T04:19:35.474Z,64.58
2019-05-05T04:22:04.216Z,69.97
2019-05-05T04:24:34.192Z,53.85
2019-05-05T04:27:04.001Z,52.10
2019-05-05T04:29:34.516Z,44.27
2019-05-05T04:32:04.484Z,56.45
2019-05-05T04:34:34.741Z,49.15
2019-05-05T04:37:04.132Z,51.20
2019-05-05T04:39:34.287Z,57.65
2019-05-05T04:42:04.996Z,51.63
2019-05-05T04:44:34.649Z,45.73
2019-05-05T04:47:16.662Z,44.77
2019-05-05T04:49:53.811Z,45.83
2019-05-05T04:52:34.346Z,40.30
2019-05-05T04:55:03.903Z,41.73
2019-05-05T04:57:32.472Z,39.85
2019-05-05T05:00:00.683Z,40.90
2019-05-05T05:02:46.731Z,43.10
2019-05-05T05:05:16.544Z,30.37
2019-05-05T05:07:45.033Z,39.73
2019-05-05T05:10:13.837Z,41.68
2019-05-05T05:12:43.612Z,41.05
2019-05-05T05:15:11.980Z,33.85
2019-05-05T05:17:44.194Z,36.15
2019-05-05T05:20:13.993Z,39.15
2019-05-05T05:22:43.548Z,42.53
2019-05-05T05:25:13.595Z,45.50
2019-05-05T05:27:44.153Z,45.03
2019-05-05T05:30:13.766Z,43.55
2019-05-05T05:32:41.685Z,38.90
2019-05-05T05:35:09.925Z,39.38
2019-05-05T05:37:38.215Z,31.33
2019-05-05T05:40:14.487Z,33.90
2019-05-05T05:42:43.967Z,30.40
2019-05-05T05:45:26.360Z,25.85
2019-05-05T05:47:56.181Z,32.75
2019-05-05T05:50:26.017Z,28.67
2019-05-05T05:52:54.190Z,30.95
2019-05-05T05:55:23.798Z,30.77
2019-05-05T05:57:54.008Z,30.65
2019-05-05T06:00:23.739Z,25.72
2019-05-05T06:02:54.383Z,20.95
2019-05-05T06:05:23.759Z,30.43
2019-05-05T06:07:54.278Z,26.77
2019-05-05T06:10:26.644Z,30.05
2019-05-05T06:12:52.026Z,25.85
2019-05-05T06:15:20.215Z,28.92
2019-05-05T06:17:48.381Z,25.75
2019-05-05T06:20:16.881Z,27.77
2019-05-05T06:22:45.372Z,28.40
2019-05-05T06:25:15.870Z,20.72
2019-05-05T06:27:44.586Z,19.90
2019-05-05T06:30:13.809Z,22.65
2019-05-05T06:32:43.746Z,29.63
2019-05-05T06:35:13.902Z,21.17
2019-05-05T06:37:54.612Z,21.42
2019-05-05T06:40:25.447Z,18.20
2019-05-05T06:43:13.893Z,20.82
2019-05-05T06:45:55.498Z,22.52
2019-05-05T06:48:23.787Z,21.00
2019-05-05T06:50:51.905Z,21.85
2019-05-05T06:53:20.074Z,25.62
2019-05-05T06:55:48.253Z,30.27
2019-05-05T06:58:16.421Z,23.27
2019-05-05T07:00:44.917Z,22.80
2019-05-05T07:03:14.010Z,20.40
2019-05-05T07:05:43.767Z,21.93
2019-05-05T07:08:13.775Z,23.62
2019-05-05T07:10:44.271Z,21.60
2019-05-05T07:13:13.874Z,17.90
2019-05-05T07:15:43.790Z,24.32
2019-05-05T07:18:14.067Z,19.87
2019-05-05T07:20:43.572Z,22.22
2019-05-05T07:23:14.293Z,25.52
2019-05-05T07:25:45.303Z,19.17
2019-05-05T07:28:14.526Z,19.75
2019-05-05T07:30:44.234Z,17.30
2019-05-05T07:33:14.866Z,22.70
2019-05-05T07:36:00.221Z,18.35
2019-05-05T07:38:24.419Z,19.27
2019-05-05T07:40:54.539Z,17.12
2019-05-05T07:43:23.974Z,16.45
2019-05-05T07:45:54.008Z,13.98
2019-05-05T07:48:24.179Z,15.03
2019-05-05T07:51:02.134Z,14.05
2019-05-05T07:53:24.416Z,20.43
2019-05-05T07:55:54.199Z,16.25
2019-05-05T07:58:24.143Z,14.18
2019-05-05T08:00:54.105Z,19.73
2019-05-05T08:03:23.659Z,37.17
2019-05-05T08:05:54.379Z,19.57
2019-05-05T08:08:24.321Z,13.95
2019-05-05T08:10:54.171Z,16.25
2019-05-05T08:13:24.352Z,14.00
2019-05-05T08:15:59.755Z,15.60
2019-05-05T08:18:29.062Z,16.70
2019-05-05T08:20:58.872Z,18.35
2019-05-05T08:23:44.756Z,16.52
2019-05-05T08:26:15.021Z,17.00
2019-05-05T08:28:54.452Z,16.07
2019-05-05T08:31:26.797Z,13.85
2019-05-05T08:33:54.962Z,14.53
2019-05-05T08:36:23.534Z,17.12
2019-05-05T08:38:51.785Z,17.35
2019-05-05T08:41:20.065Z,17.32
2019-05-05T08:43:48.533Z,22.82
2019-05-05T08:46:16.703Z,20.20
2019-05-05T08:48:45.186Z,17.55
2019-05-05T08:51:14.156Z,18.17
2019-05-05T08:53:47.358Z,17.67
2019-05-05T08:56:14.451Z,16.45
2019-05-05T08:58:43.756Z,23.22
2019-05-05T09:01:12.021Z,17.50
2019-05-05T09:03:40.196Z,13.95
2019-05-05T09:06:08.360Z,13.58
2019-05-05T09:08:36.818Z,14.38
2019-05-05T09:11:05.120Z,14.35
2019-05-05T09:13:34.014Z,14.65
2019-05-05T09:16:03.834Z,15.28
2019-05-05T09:18:33.933Z,11.73
2019-05-05T09:21:04.206Z,12.13
2019-05-05T09:23:34.663Z,15.58
2019-05-05T09:26:21.213Z,12.53
2019-05-05T09:28:51.309Z,14.20
2019-05-05T09:31:19.472Z,14.73
2019-05-05T09:33:47.655Z,13.68
2019-05-05T09:36:16.132Z,12.50
2019-05-05T09:38:45.068Z,13.28
2019-05-05T09:41:14.335Z,16.42
2019-05-05T09:43:44.642Z,14.40
2019-05-05T09:46:14.366Z,13.25
2019-05-05T09:48:44.052Z,11.70
2019-05-05T09:51:13.640Z,10.53
2019-05-05T09:53:42.006Z,10.68
2019-05-05T09:56:10.195Z,10.30
2019-05-05T09:58:38.711Z,10.88
2019-05-05T10:01:07.751Z,11.20
2019-05-05T10:03:35.930Z,11.18
2019-05-05T10:06:04.978Z,10.82
2019-05-05T10:08:34.066Z,10.28
2019-05-05T10:11:04.130Z,8.38
2019-05-05T10:13:33.753Z,10.80
2019-05-05T10:16:03.836Z,9.58
2019-05-05T10:18:34.690Z,11.45
2019-05-05T10:21:01.742Z,7.05
2019-05-05T10:23:31.819Z,9.15
2019-05-05T10:26:01.619Z,9.98
2019-05-05T10:28:30.229Z,10.05
2019-05-05T10:30:58.399Z,10.85
2019-05-05T10:33:26.567Z,6.97
2019-05-05T10:35:54.731Z,7.60
2019-05-05T10:38:23.566Z,6.67
2019-05-05T10:40:53.618Z,6.50
2019-05-05T10:43:23.839Z,6.65
2019-05-05T10:45:52.095Z,5.95
2019-05-05T10:48:20.258Z,7.35
2019-05-05T10:50:48.430Z,7.33
2019-05-05T10:53:16.592Z,6.60
2019-05-05T10:55:45.151Z,8.08
2019-05-05T10:58:13.834Z,8.73
2019-05-05T11:00:47.591Z,5.90
2019-05-05T11:03:15.752Z,7.08
2019-05-05T11:05:44.805Z,8.55
2019-05-05T11:08:13.700Z,6.17
2019-05-05T11:10:44.579Z,7.10
2019-05-05T11:13:12.188Z,6.17
2019-05-05T11:15:40.364Z,5.60
2019-05-05T11:18:08.967Z,7.60
2019-05-05T11:20:37.138Z,5.30
2019-05-05T11:23:05.624Z,4.83
2019-05-05T11:25:33.906Z,5.35
2019-05-05T11:28:03.705Z,5.20
2019-05-05T11:30:34.020Z,5.50
2019-05-05T11:33:16.050Z,5.00
2019-05-05T11:36:04.611Z,5.80
2019-05-05T11:38:33.903Z,6.37
2019-05-05T11:41:04.671Z,4.00
2019-05-05T11:43:33.785Z,5.25
2019-05-05T11:46:02.385Z,7.20
2019-05-05T11:48:30.539Z,6.95
2019-05-05T11:50:58.963Z,5.92
2019-05-05T11:53:27.136Z,7.60
2019-05-05T11:55:55.619Z,6.33
2019-05-05T11:58:24.832Z,4.87
2019-05-05T12:00:54.562Z,5.55
2019-05-05T12:03:23.040Z,5.15
2019-05-05T12:05:51.211Z,4.95
2019-05-05T12:08:19.381Z,5.28
2019-05-05T12:10:54.133Z,6.20
2019-05-05T12:13:22.385Z,5.87
2019-05-05T12:15:53.826Z,5.45
2019-05-05T12:18:23.741Z,6.37
2019-05-05T12:20:54.239Z,5.92
2019-05-05T12:23:22.238Z,6.35
2019-05-05T12:25:56.673Z,7.67
2019-05-05T12:28:26.305Z,6.00
2019-05-05T12:30:57.411Z,7.00
2019-05-05T12:33:25.573Z,7.55
2019-05-05T12:35:54.366Z,5.45
2019-05-05T12:38:24.115Z,8.00
2019-05-05T12:40:53.549Z,7.87
2019-05-05T12:43:22.066Z,5.55
2019-05-05T12:46:00.922Z,5.92
2019-05-05T12:48:43.803Z,8.23
2019-05-05T12:51:12.101Z,10.43
2019-05-05T12:53:40.269Z,6.95
2019-05-05T12:56:08.436Z,8.75
2019-05-05T12:58:36.595Z,8.33
2019-05-05T13:01:06.410Z,7.28
2019-05-05T13:03:34.729Z,9.73
2019-05-05T13:06:04.098Z,9.75
2019-05-05T13:08:34.020Z,8.03
2019-05-05T13:11:04.057Z,7.20
2019-05-05T13:13:34.399Z,6.87
2019-05-05T13:16:04.255Z,7.03
2019-05-05T13:18:33.966Z,8.15
2019-05-05T13:21:06.555Z,5.78
2019-05-05T13:23:45.101Z,7.47
2019-05-05T13:26:17.620Z,9.53
2019-05-05T13:28:45.783Z,5.60
2019-05-05T13:31:14.216Z,10.03
2019-05-05T13:33:44.276Z,6.85
2019-05-05T13:36:13.763Z,8.65
2019-05-05T13:38:43.843Z,8.30
2019-05-05T13:41:12.110Z,7.42
2019-05-05T13:43:40.286Z,8.33
2019-05-05T13:46:10.087Z,9.03
2019-05-05T13:48:38.267Z,10.40
2019-05-05T13:51:08.068Z,8.63
2019-05-05T13:53:36.244Z,13.95
2019-05-05T13:56:11.861Z,12.63
2019-05-05T13:58:34.409Z,9.58
2019-05-05T14:01:03.734Z,8.60
2019-05-05T14:03:34.150Z,12.60
2019-05-05T14:06:04.583Z,15.45
2019-05-05T14:08:36.000Z,62.62
2019-05-05T14:11:03.636Z,5.37
2019-05-05T14:13:34.116Z,4.50
2019-05-05T14:16:03.893Z,4.47
2019-05-05T14:18:32.470Z,3.40
2019-05-05T14:21:00.953Z,6.92
2019-05-05T14:23:30.780Z,4.75
2019-05-05T14:25:59.006Z,4.00
2019-05-05T14:28:27.191Z,3.50
2019-05-05T14:31:00.003Z,3.25
2019-05-05T14:33:31.360Z,4.03
2019-05-05T14:36:04.995Z,4.40
2019-05-05T14:38:44.419Z,3.50
2019-05-05T14:41:13.628Z,4.42
2019-05-05T14:43:43.774Z,3.85
2019-05-05T14:46:14.370Z,7.05
2019-05-05T14:48:44.068Z,5.95
2019-05-05T14:51:14.411Z,5.90
2019-05-05T14:53:43.758Z,3.60
2019-05-05T14:56:13.574Z,4.60
2019-05-05T14:58:43.714Z,4.30
2019-05-05T15:01:14.285Z,5.58
2019-05-05T15:03:41.945Z,4.22
2019-05-05T15:06:11.870Z,6.15
2019-05-05T15:08:56.497Z,10.05
2019-05-05T15:11:41.764Z,5.97
2019-05-05T15:14:10.038Z,5.72
2019-05-05T15:16:38.208Z,6.35
2019-05-05T15:19:06.388Z,4.72
2019-05-05T15:21:34.863Z,8.23
2019-05-05T15:24:03.078Z,6.58
2019-05-05T15:26:31.479Z,9.93
2019-05-05T15:29:01.757Z,9.13
2019-05-05T15:31:29.818Z,9.85
2019-05-05T15:33:57.997Z,9.13
2019-05-05T15:36:26.176Z,16.10
2019-05-05T15:38:55.219Z,12.07
2019-05-05T15:41:23.716Z,11.25
2019-05-05T15:43:51.888Z,10.98
2019-05-05T15:46:20.402Z,16.82
2019-05-05T15:48:48.582Z,42.33
2019-05-05T15:51:16.775Z,16.42
2019-05-05T15:53:44.935Z,8.38
2019-05-05T15:56:13.874Z,7.30
2019-05-05T15:58:43.549Z,12.88
2019-05-05T16:01:11.944Z,12.63
2019-05-05T16:03:40.116Z,13.58
2019-05-05T16:06:08.304Z,20.35
2019-05-05T16:08:36.485Z,14.28
2019-05-05T16:11:05.013Z,12.93
2019-05-05T16:13:35.164Z,12.90
2019-05-05T16:16:08.022Z,10.23
2019-05-05T16:18:37.846Z,17.95
2019-05-05T16:21:10.218Z,13.08
2019-05-05T16:23:46.070Z,12.55
2019-05-05T16:26:14.240Z,9.33
2019-05-05T16:28:44.501Z,15.32
2019-05-05T16:31:14.423Z,16.10
2019-05-05T16:33:44.125Z,13.10
2019-05-05T16:36:13.805Z,13.35
2019-05-05T16:38:43.575Z,20.65
2019-05-05T16:41:13.606Z,19.57
2019-05-05T16:43:44.103Z,16.35
2019-05-05T16:46:16.753Z,20.27
2019-05-05T16:48:43.939Z,14.28
2019-05-05T16:51:13.945Z,13.95
2019-05-05T16:53:42.396Z,13.00
2019-05-05T16:56:14.057Z,15.32
2019-05-05T16:58:44.887Z,13.70
2019-05-05T17:01:16.906Z,12.40
2019-05-05T17:03:45.856Z,12.80
2019-05-05T17:06:14.491Z,11.53
2019-05-05T17:08:44.380Z,12.13
2019-05-05T17:11:14.777Z,12.03
2019-05-05T17:13:49.766Z,12.90
2019-05-05T17:16:35.584Z,10.40
2019-05-05T17:19:20.597Z,11.60
2019-05-05T17:21:50.685Z,9.23
2019-05-05T17:24:19.151Z,10.65
2019-05-05T17:26:47.641Z,10.10
2019-05-05T17:29:16.116Z,13.75
2019-05-05T17:31:44.490Z,10.80
2019-05-05T17:34:13.744Z,9.88
2019-05-05T17:36:42.027Z,10.15
2019-05-05T17:39:10.204Z,12.37
2019-05-05T17:41:45.782Z,12.45
2019-05-05T17:44:15.590Z,13.68
2019-05-05T17:46:45.403Z,13.43
2019-05-05T17:49:15.539Z,13.00
2019-05-05T17:51:54.881Z,11.68
2019-05-05T17:54:27.689Z,10.80
2019-05-05T17:56:56.166Z,12.65
2019-05-05T17:59:24.646Z,16.80
2019-05-05T18:01:53.989Z,19.48
2019-05-05T18:04:22.844Z,18.77
2019-05-05T18:06:58.575Z,21.25
2019-05-05T18:09:28.701Z,22.17
2019-05-05T18:11:58.527Z,24.50
2019-05-05T18:14:31.028Z,24.60
2019-05-05T18:16:59.191Z,13.03
2019-05-05T18:19:27.391Z,13.83
2019-05-05T18:21:55.808Z,14.55
2019-05-05T18:24:24.410Z,15.20
2019-05-05T18:26:53.672Z,19.25
2019-05-05T18:29:24.121Z,20.50
2019-05-05T18:31:53.557Z,22.52
2019-05-05T18:34:23.604Z,23.07
2019-05-05T18:36:54.181Z,22.52
2019-05-05T18:39:22.200Z,22.62
2019-05-05T18:41:55.030Z,18.95
2019-05-05T18:44:24.850Z,19.62
2019-05-05T18:47:14.630Z,16.95
2019-05-05T18:49:41.425Z,18.42
2019-05-05T18:52:10.601Z,21.02
2019-05-05T18:54:38.785Z,19.98
2019-05-05T18:57:08.127Z,25.43
2019-05-05T18:59:36.378Z,31.62
2019-05-05T19:02:14.323Z,28.73
2019-05-05T19:04:48.694Z,27.13
2019-05-05T19:07:30.527Z,28.73
2019-05-05T19:09:59.043Z,35.80
2019-05-05T19:12:27.562Z,35.23
2019-05-05T19:14:55.729Z,32.00
2019-05-05T19:17:24.171Z,29.27
2019-05-05T19:19:54.970Z,34.23
2019-05-05T19:22:23.333Z,22.85
2019-05-05T19:24:51.519Z,21.52
2019-05-05T19:27:19.687Z,20.97
2019-05-05T19:29:47.944Z,23.38
2019-05-05T19:32:16.118Z,24.30
2019-05-05T19:34:44.393Z,24.98
2019-05-05T19:37:14.022Z,18.82
2019-05-05T19:39:42.546Z,23.47
2019-05-05T19:42:10.717Z,18.20
2019-05-05T19:44:38.904Z,18.50
2019-05-05T19:47:20.460Z,22.40
2019-05-05T19:49:50.284Z,26.00
2019-05-05T19:52:18.450Z,35.63
2019-05-05T19:54:47.661Z,30.37
2019-05-05T19:57:16.149Z,26.97
2019-05-05T19:59:44.789Z,30.17
2019-05-05T20:02:12.977Z,32.42
2019-05-05T20:04:41.156Z,36.38
2019-05-05T20:07:09.674Z,32.50
2019-05-05T20:09:37.852Z,31.73
2019-05-05T20:12:08.945Z,35.30
2019-05-05T20:14:37.475Z,26.42
2019-05-05T20:17:10.237Z,29.02
2019-05-05T20:19:40.058Z,32.38
2019-05-05T20:22:08.223Z,40.60
2019-05-05T20:24:36.411Z,47.73
2019-05-05T20:27:04.763Z,48.98
2019-05-05T20:29:36.742Z,34.60
2019-05-05T20:32:04.331Z,35.98
2019-05-05T20:34:50.517Z,37.78
2019-05-05T20:37:20.330Z,37.07
2019-05-05T20:39:48.517Z,33.53
2019-05-05T20:42:16.696Z,33.60
2019-05-05T20:44:44.881Z,32.08
2019-05-05T20:47:13.122Z,37.65
2019-05-05T20:49:41.302Z,34.90
2019-05-05T20:52:10.805Z,38.08
2019-05-05T20:54:39.294Z,38.30
2019-05-05T20:57:07.778Z,44.60
2019-05-05T20:59:36.255Z,43.60
2019-05-05T21:02:04.781Z,40.38
2019-05-05T21:04:34.535Z,39.95
2019-05-05T21:07:04.507Z,35.90
2019-05-05T21:09:34.541Z,37.38
2019-05-05T21:12:04.701Z,32.73
2019-05-05T21:14:37.213Z,35.05
2019-05-05T21:17:04.037Z,33.90
2019-05-05T21:19:34.518Z,34.83
2019-05-05T21:22:20.980Z,28.35
2019-05-05T21:24:49.125Z,29.60
2019-05-05T21:27:17.310Z,31.70
2019-05-05T21:29:45.785Z,40.50
2019-05-05T21:32:14.201Z,31.30
2019-05-05T21:34:44.346Z,33.18
2019-05-05T21:37:14.126Z,29.72
2019-05-05T21:39:42.188Z,31.65
2019-05-05T21:42:10.656Z,38.28
2019-05-05T21:44:38.827Z,41.50
2019-05-05T21:47:07.308Z,45.33
2019-05-05T21:49:35.478Z,34.78
2019-05-05T21:52:07.907Z,33.63
2019-05-05T21:54:43.923Z,32.63
2019-05-05T21:57:16.530Z,30.62
2019-05-05T21:59:54.822Z,31.75
2019-05-05T22:02:15.351Z,30.90
2019-05-05T22:04:43.633Z,38.65
2019-05-05T22:07:11.816Z,38.15
2019-05-05T22:09:40.057Z,39.48
2019-05-05T22:12:08.236Z,38.28
2019-05-05T22:14:36.406Z,34.53
2019-05-05T22:17:04.791Z,45.08
2019-05-05T22:19:44.525Z,45.08
2019-05-05T22:22:14.621Z,46.53
2019-05-05T22:24:44.401Z,41.02
2019-05-05T22:27:12.668Z,43.73
2019-05-05T22:29:41.098Z,37.95
2019-05-05T22:32:09.280Z,38.55
2019-05-05T22:34:37.447Z,41.68
2019-05-05T22:37:09.238Z,39.50
2019-05-05T22:39:35.524Z,27.77
2019-05-05T22:42:04.718Z,31.48
2019-05-05T22:44:33.925Z,30.25
2019-05-05T22:47:04.496Z,28.77
2019-05-05T22:49:32.066Z,29.67
2019-05-05T22:52:00.232Z,33.88
2019-05-05T22:54:28.672Z,32.42
2019-05-05T22:56:56.845Z,28.47
2019-05-05T22:59:26.175Z,30.02
2019-05-05T23:01:54.487Z,26.37
2019-05-05T23:04:24.305Z,29.67
2019-05-05T23:06:54.293Z,37.93
2019-05-05T23:09:22.482Z,41.92
2019-05-05T23:11:50.652Z,39.10
2019-05-05T23:14:28.124Z,36.58
2019-05-05T23:16:58.187Z,36.03
2019-05-05T23:19:28.020Z,61.18
2019-05-05T23:21:58.152Z,51.13
2019-05-05T23:24:37.127Z,47.85
2019-05-05T23:27:05.302Z,42.98
2019-05-05T23:29:34.161Z,46.85
2019-05-05T23:32:02.434Z,54.63
2019-05-05T23:34:30.904Z,48.30
2019-05-05T23:36:59.073Z,76.15
2019-05-05T23:39:27.561Z,54.85
2019-05-05T23:41:56.567Z,95.25
2019-05-05T23:44:24.749Z,103.58
2019-05-05T23:46:53.817Z,85.62
2019-05-05T23:49:24.170Z,138.80
2019-05-05T23:51:53.963Z,106.32
2019-05-05T23:54:24.562Z,209.77
2019-05-05T23:56:53.721Z,301.88
2019-05-05T23:59:24.145Z,77.90
